Terminal Aerodrome Forecast
Issued by NWS

Home | Current Version | Previous Version | Text Only | Print | Product List | Glossary On
Versions: 1 2 3 4 5 6 7 8 9 10 11 12 13 14 15 16 17 18 19 20
000
FTAK31 PAJN 191100
TAFAWG
TAF
PAWG 191133Z 1912/2012 VRB05KT 6SM BR VCSH SCT030 OVC045
     FM191600 13006KT 5SM -SHRA BR SCT020 OVC040
     FM200000 14005KT P6SM VCSH SCT025 OVC040
     FM200600 13008KT 4SM -RA BR SCT015 OVC030
      AMD LTD TO CLD VIS AND WIND 1912/1915=

USA.gov is the U.S. government's official web portal to all federal, state and local government web resources and services.